Time;durP1;ratioP1;P1;durP2;ratioP2;P2;SDS_P1;SDS_P2;PMS_P1;PMS_P2;Temp;Humidity;BMP_temperature;BMP_pressure;BME280_temperature;BME280_humidity;BME280_pressure;Samples;Min_cycle;Max_cycle;Signal;HPM_P1;HPM_P2
2022/05/24 00:01:01;;;;;;;11.90;10.80;;;17.80;99.90;;;;;;5931457;24;20970;-85
2022/05/24 00:03:58;;;;;;;13.00;10.80;;;17.90;99.90;;;;;;5952645;24;20421;-84
2022/05/24 00:06:46;;;;;;;14.93;11.20;;;17.60;99.90;;;;;;5929232;24;20476;-85
2022/05/24 00:09:19;;;;;;;11.53;10.47;;;17.60;99.90;;;;;;5899494;24;20420;-85
2022/05/24 00:11:52;;;;;;;11.53;10.43;;;17.50;99.90;;;;;;5930699;24;20456;-85
2022/05/24 00:15:19;;;;;;;11.13;10.03;;;17.50;99.90;;;;;;5926824;24;20489;-84
2022/05/24 00:17:29;;;;;;;12.00;10.80;;;17.60;99.90;;;;;;5948789;24;20460;-84
2022/05/24 00:20:15;;;;;;;12.50;10.07;;;17.60;99.90;;;;;;5951920;24;20476;-85
2022/05/24 00:23:05;;;;;;;;;;;;;;;;;;;;;
2022/05/24 00:25:46;;;;;;;11.20;9.80;;;17.70;99.90;;;;;;6104795;23;20426;-85
2022/05/24 00:28:31;;;;;;;11.10;10.00;;;17.90;99.90;;;;;;6103903;23;20435;-86
2022/05/24 00:31:01;;;;;;;12.07;10.87;;;17.90;99.90;;;;;;6080371;23;20925;-85
2022/05/24 00:33:34;;;;;;;11.57;10.57;;;18.00;99.90;;;;;;6102592;23;20423;-86
2022/05/24 00:36:02;;;;;;;10.17;9.27;;;17.80;99.90;;;;;;6072565;23;20515;-85
2022/05/24 00:38:36;;;;;;;10.53;9.40;;;17.70;99.90;;;;;;6095631;23;20481;-86
2022/05/24 00:41:25;;;;;;;8.30;7.47;;;17.60;99.90;;;;;;6051913;23;20409;-84
2022/05/24 00:44:12;;;;;;;8.90;8.10;;;17.60;99.90;;;;;;6070267;23;20412;-84
2022/05/24 00:47:14;;;;;;;9.20;8.30;;;17.70;99.90;;;;;;6074290;23;20459;-88
2022/05/24 00:50:01;;;;;;;8.57;7.03;;;17.60;99.90;;;;;;6097772;23;20499;-85
2022/05/24 00:52:49;;;;;;;7.93;7.23;;;17.80;99.90;;;;;;6094672;23;20495;-84
2022/05/24 00:56:00;;;;;;;9.07;8.17;;;18.10;99.90;;;;;;6097626;23;20467;-83
2022/05/24 00:59:02;;;;;;;8.60;7.83;;;18.10;99.90;;;;;;6066980;23;20406;-84
2022/05/24 01:01:52;;;;;;;8.37;7.53;;;17.90;99.90;;;;;;6065867;23;20409;-85
2022/05/24 01:04:38;;;;;;;10.03;8.47;;;18.00;99.90;;;;;;6053034;23;20961;-86
2022/05/24 01:07:46;;;;;;;9.50;7.73;;;18.00;99.90;;;;;;6046143;23;20444;-87
2022/05/24 01:11:00;;;;;;;7.30;6.70;;;17.80;99.90;;;;;;6068189;23;20898;-85
2022/05/24 01:13:47;;;;;;;9.37;8.53;;;18.00;99.90;;;;;;6066360;23;20450;-87
2022/05/24 01:16:28;;;;;;;9.40;7.43;;;18.10;99.90;;;;;;6077077;23;20481;-85
2022/05/24 01:19:04;;;;;;;8.20;7.40;;;18.00;99.90;;;;;;6066332;23;20419;-86
2022/05/24 01:22:31;;;;;;;8.20;7.50;;;17.90;99.90;;;;;;6065879;23;20425;-86
2022/05/24 01:25:39;;;;;;;8.20;7.47;;;17.90;99.90;;;;;;6028345;23;20524;-86
2022/05/24 01:28:44;;;;;;;8.53;7.73;;;18.00;99.90;;;;;;6064968;23;20421;-86
2022/05/24 01:37:25;;;;;;;8.60;7.90;;;18.00;99.90;;;;;;6065687;23;21302;-84
2022/05/24 01:40:19;;;;;;;7.20;6.60;;;17.90;99.90;;;;;;6064820;23;20417;-85
2022/05/24 01:43:15;;;;;;;8.00;7.37;;;17.80;99.90;;;;;;6060727;23;20457;-84
2022/05/24 01:46:10;;;;;;;7.87;7.17;;;17.90;99.90;;;;;;6070283;23;20404;-87
2022/05/24 01:48:56;;;;;;;6.80;6.17;;;17.80;99.90;;;;;;6063991;23;20426;-85
2022/05/24 01:51:50;;;;;;;8.03;7.23;;;17.70;99.90;;;;;;6064126;23;20509;-86
2022/05/24 01:54:59;;;;;;;7.23;6.53;;;17.60;99.90;;;;;;5946281;24;20425;-85
2022/05/24 01:57:59;;;;;;;7.40;6.87;;;17.60;99.90;;;;;;6063982;23;20448;-88
2022/05/24 02:00:32;;;;;;;7.57;6.87;;;17.60;99.90;;;;;;6061817;23;20412;-85
2022/05/24 02:03:24;;;;;;;7.20;6.50;;;17.60;99.90;;;;;;6070139;23;20430;-85
2022/05/24 02:05:54;;;;;;;7.90;7.10;;;17.60;99.90;;;;;;6066630;23;20421;-89
2022/05/24 02:08:29;;;;;;;8.90;6.70;;;17.60;99.90;;;;;;6067957;23;20421;-87
2022/05/24 02:11:23;;;;;;;7.67;7.07;;;17.60;99.90;;;;;;6063445;23;20455;-85
2022/05/24 02:18:19;;;;;;;5.83;5.33;;;17.30;99.90;;;;;;6044677;23;20540;-87
2022/05/24 02:22:18;;;;;;;5.77;5.27;;;17.30;99.90;;;;;;5947872;24;20910;-85
2022/05/24 02:25:42;;;;;;;7.33;6.17;;;17.40;99.90;;;;;;5938547;24;20413;-85
2022/05/24 02:28:38;;;;;;;9.03;6.50;;;17.30;99.90;;;;;;5922802;24;20413;-87
2022/05/24 02:31:36;;;;;;;7.90;6.47;;;17.60;99.90;;;;;;5925846;24;20512;-87
2022/05/24 02:34:59;;;;;;;;;;;;;;;;;;;;;
2022/05/24 02:37:55;;;;;;;6.93;6.33;;;17.40;99.90;;;;;;5944923;24;21098;-84
2022/05/24 02:44:14;;;;;;;7.90;7.20;;;17.30;99.90;;;;;;5946460;24;21007;-86
2022/05/24 02:47:38;;;;;;;7.20;6.50;;;17.40;99.90;;;;;;5920761;24;20487;-85
2022/05/24 02:50:49;;;;;;;6.37;5.30;;;17.30;99.90;;;;;;5874840;24;20417;-87
2022/05/24 02:53:48;;;;;;;5.00;4.50;;;17.20;99.90;;;;;;5872135;24;20504;-86
2022/05/24 02:57:38;;;;;;;6.77;4.67;;;17.10;99.90;;;;;;5957988;23;20543;-85
2022/05/24 03:00:37;;;;;;;8.17;4.20;;;17.10;99.90;;;;;;5993358;23;20450;-87
2022/05/24 03:10:22;;;;;;;4.80;3.50;;;17.10;99.90;;;;;;5955104;24;20836;-85
2022/05/24 03:17:00;;;;;;;4.80;4.10;;;17.00;99.40;;;;;;5928812;23;20921;-85
2022/05/24 03:20:41;;;;;;;4.40;3.63;;;17.00;99.40;;;;;;5960312;24;20427;-84
2022/05/24 03:31:33;;;;;;;3.80;3.50;;;17.10;98.50;;;;;;6123010;23;20422;-86
2022/05/24 03:34:14;;;;;;;4.97;3.50;;;17.10;98.70;;;;;;6123994;23;20459;-84
2022/05/24 03:37:23;;;;;;;8.73;4.90;;;17.10;98.80;;;;;;6121024;23;20552;-87
2022/05/24 03:40:13;;;;;;;7.77;3.80;;;17.30;98.80;;;;;;6118563;23;20474;-87
2022/05/24 03:43:50;;;;;;;4.90;3.90;;;17.10;99.00;;;;;;5995765;23;20399;-87
2022/05/24 03:46:50;;;;;;;8.20;3.80;;;17.00;99.00;;;;;;5961534;24;20432;-86
2022/05/24 03:50:30;;;;;;;;;;;;;;;;;;;;;
2022/05/24 04:01:38;;;;;;;6.60;3.87;;;17.10;98.10;;;;;;5971644;24;20452;-83
2022/05/24 04:04:23;;;;;;;6.67;3.43;;;17.00;98.60;;;;;;5975279;24;20458;-87
2022/05/24 04:07:08;;;;;;;5.10;3.37;;;16.90;98.40;;;;;;5974510;24;20960;-87
2022/05/24 04:13:19;;;;;;;7.40;3.50;;;16.90;98.60;;;;;;5970446;24;20511;-89
2022/05/24 04:16:13;;;;;;;;;;;;;;;;;;;;;
2022/05/24 04:19:45;;;;;;;7.30;3.63;;;17.10;98.80;;;;;;5970903;23;20404;-86
2022/05/24 04:22:50;;;;;;;7.50;3.53;;;16.80;98.70;;;;;;6098704;23;20388;-86
2022/05/24 04:26:09;;;;;;;4.20;3.03;;;16.80;99.00;;;;;;6133637;23;20423;-88
2022/05/24 04:32:16;;;;;;;;;;;;;;;;;;;;;
2022/05/24 04:35:15;;;;;;;3.70;2.80;;;16.70;99.90;;;;;;6118856;23;20423;-87
2022/05/24 04:38:26;;;;;;;;;;;;;;;;;;;;;
2022/05/24 04:45:38;;;;;;;4.67;3.17;;;16.70;99.90;;;;;;6039426;23;20711;-86
2022/05/24 04:48:24;;;;;;;5.73;2.97;;;16.70;99.90;;;;;;6011800;23;20394;-86
2022/05/24 04:51:29;;;;;;;5.80;3.73;;;16.90;99.30;;;;;;6020165;23;20411;-84
2022/05/24 04:54:55;;;;;;;5.73;3.20;;;16.80;99.40;;;;;;6027895;23;20399;-85
2022/05/24 04:58:04;;;;;;;4.50;2.70;;;16.70;99.60;;;;;;6008219;23;20446;-85
2022/05/24 05:04:55;;;;;;;3.73;2.57;;;16.40;99.90;;;;;;6031735;23;20406;-85
2022/05/24 05:11:56;;;;;;;4.40;3.87;;;16.10;99.90;;;;;;5934237;23;20482;-86
2022/05/24 05:14:55;;;;;;;9.67;3.90;;;16.00;99.90;;;;;;6015976;23;20495;-86
2022/05/24 05:18:11;;;;;;;4.50;3.13;;;16.10;99.90;;;;;;5960465;23;21065;-83
2022/05/24 05:21:36;;;;;;;4.10;3.07;;;16.10;99.90;;;;;;6015708;23;20483;-85
2022/05/24 05:31:22;;;;;;;3.97;3.50;;;16.00;99.90;;;;;;6031139;23;20487;-85
2022/05/24 05:35:07;;;;;;;3.77;2.70;;;15.80;99.90;;;;;;5949761;23;20589;-87
2022/05/24 05:38:46;;;;;;;;;;;;;;;;;;;;;
2022/05/24 05:41:34;;;;;;;6.20;3.73;;;15.70;99.90;;;;;;6128200;23;20466;-86
2022/05/24 05:44:45;;;;;;;5.77;4.07;;;15.80;99.90;;;;;;6097913;23;20502;-84
2022/05/24 05:47:52;;;;;;;9.60;4.27;;;15.80;99.90;;;;;;6088988;23;20431;-83
2022/05/24 05:51:10;;;;;;;5.63;3.40;;;15.70;99.90;;;;;;6089119;23;20404;-86
2022/05/24 05:54:05;;;;;;;6.77;3.10;;;15.60;99.90;;;;;;6095936;23;20439;-85
2022/05/24 05:58:11;;;;;;;5.00;3.70;;;15.60;99.90;;;;;;5987549;23;21353;-86
2022/05/24 06:01:03;;;;;;;6.20;3.90;;;15.60;99.90;;;;;;5961807;23;20400;-85
2022/05/24 06:04:39;;;;;;;4.73;2.57;;;15.60;99.90;;;;;;6004746;23;20438;-85
2022/05/24 06:07:40;;;;;;;;;;;;;;;;;;;;;
2022/05/24 06:11:41;;;;;;;;;;;;;;;;;;;;;
2022/05/24 06:18:12;;;;;;;;;;;;;;;;;;;;;
2022/05/24 06:21:52;;;;;;;5.43;1.00;;;15.30;99.90;;;;;;5973794;23;20410;-87
2022/05/24 06:25:00;;;;;;;1.53;1.40;;;15.30;99.90;;;;;;5899807;24;20426;-85
2022/05/24 06:31:46;;;;;;;2.27;1.27;;;15.30;99.90;;;;;;6005348;23;20451;-84
2022/05/24 06:34:49;;;;;;;7.57;1.70;;;15.30;99.90;;;;;;5986177;23;20974;-87
2022/05/24 06:37:54;;;;;;;2.43;1.60;;;15.40;99.90;;;;;;5985592;23;20524;-84
2022/05/24 06:40:36;;;;;;;2.70;1.90;;;15.30;99.90;;;;;;5985878;23;20495;-85
2022/05/24 06:43:47;;;;;;;2.83;1.47;;;15.20;99.90;;;;;;6005478;23;20450;-84
2022/05/24 06:47:19;;;;;;;;;;;;;;;;;;;;;
2022/05/24 06:51:05;;;;;;;3.03;2.73;;;15.20;99.90;;;;;;6003186;23;20503;-85
2022/05/24 06:57:37;;;;;;;1.83;1.60;;;15.30;99.90;;;;;;6088299;23;20443;-86
2022/05/24 07:04:03;;;;;;;2.70;1.13;;;15.50;99.90;;;;;;6142726;23;20428;-87
2022/05/24 07:07:11;;;;;;;1.20;1.10;;;15.60;99.90;;;;;;6120787;23;20434;-88
2022/05/24 07:10:02;;;;;;;4.63;1.47;;;15.90;99.90;;;;;;6115645;23;20399;-86
2022/05/24 07:14:01;;;;;;;1.80;0.97;;;15.80;99.90;;;;;;6113001;23;20430;-85
2022/05/24 07:17:00;;;;;;;1.40;0.90;;;15.70;99.90;;;;;;5933783;23;20423;-84
2022/05/24 07:19:55;;;;;;;2.90;1.30;;;15.70;99.90;;;;;;6027141;23;20410;-83
2022/05/24 07:22:56;;;;;;;2.50;1.20;;;15.40;99.90;;;;;;6023883;23;21317;-85
2022/05/24 07:25:52;;;;;;;1.20;1.10;;;15.60;99.90;;;;;;6030033;23;20529;-84
2022/05/24 07:28:28;;;;;;;1.80;1.30;;;15.90;99.90;;;;;;6011940;23;20529;-86
2022/05/24 07:31:21;;;;;;;2.17;1.20;;;16.00;99.90;;;;;;6032296;23;20548;-85
2022/05/24 07:34:35;;;;;;;4.27;1.93;;;16.10;99.90;;;;;;5927516;24;20393;-84
2022/05/24 07:37:27;;;;;;;2.20;1.20;;;16.00;99.90;;;;;;5946783;24;20460;-87
2022/05/24 07:51:02;;;;;;;2.03;1.40;;;16.80;99.90;;;;;;5867823;24;21472;-85
2022/05/24 07:54:17;;;;;;;2.10;1.17;;;17.30;98.70;;;;;;5949321;23;20600;-84
2022/05/24 08:05:32;;;;;;;;;;;;;;;;;;;;;
2022/05/24 08:20:21;;;;;;;1.20;0.90;;;18.30;94.70;;;;;;5814567;24;20985;-86
2022/05/24 08:34:32;;;;;;;1.50;0.80;;;19.30;90.50;;;;;;6126334;23;20490;-83
2022/05/24 08:53:49;;;;;;;;;;;;;;;;;;;;;
2022/05/24 08:57:21;;;;;;;1.60;0.90;;;18.80;90.20;;;;;;5834529;24;20570;-84
2022/05/24 09:00:48;;;;;;;1.17;0.90;;;18.50;90.40;;;;;;5773877;24;20984;-84
2022/05/24 09:08:39;;;;;;;4.90;1.30;;;19.20;89.50;;;;;;5869953;24;20549;-84
2022/05/24 09:19:10;;;;;;;1.93;0.80;;;24.50;67.70;;;;;;5908039;24;20552;-88
2022/05/24 09:22:26;;;;;;;;;;;;;;;;;;;;;
2022/05/24 09:25:35;;;;;;;1.30;0.80;;;21.40;69.80;;;;;;5927715;24;20467;-84
2022/05/24 09:28:53;;;;;;;1.27;0.80;;;21.30;70.30;;;;;;5967861;23;20471;-88
2022/05/24 09:35:26;;;;;;;2.20;0.90;;;20.10;73.10;;;;;;6007536;23;20427;-87
2022/05/24 09:38:23;;;;;;;1.53;1.43;;;20.30;72.20;;;;;;5985900;23;20451;-86
2022/05/24 09:41:35;;;;;;;1.33;1.00;;;19.40;74.80;;;;;;5985524;23;20417;-85
2022/05/24 09:44:41;;;;;;;3.03;0.97;;;19.10;76.70;;;;;;5988996;23;21231;-85
2022/05/24 09:48:16;;;;;;;0.90;0.70;;;19.10;78.00;;;;;;5988556;23;20458;-86
2022/05/24 09:51:00;;;;;;;1.47;1.10;;;19.20;78.70;;;;;;6073068;23;20607;-87
2022/05/24 09:55:03;;;;;;;1.33;1.00;;;19.10;77.80;;;;;;6074156;23;20455;-88
2022/05/24 09:57:58;;;;;;;1.80;1.00;;;18.70;79.10;;;;;;6033893;23;20744;-86
2022/05/24 10:04:42;;;;;;;1.47;1.13;;;18.70;79.80;;;;;;6098222;23;20425;-87
2022/05/24 10:07:52;;;;;;;1.67;1.00;;;19.10;80.40;;;;;;6074021;23;20508;-88
2022/05/24 10:10:49;;;;;;;2.07;1.20;;;20.10;76.10;;;;;;6077353;23;20411;-88
2022/05/24 10:14:04;;;;;;;2.47;1.10;;;20.70;74.30;;;;;;6090664;23;20436;-88
2022/05/24 10:17:42;;;;;;;;;;;;;;;;;;;;;
2022/05/24 10:20:54;;;;;;;2.30;1.40;;;22.80;61.60;;;;;;6043673;23;20453;-84
2022/05/24 10:31:08;;;;;;;1.67;1.00;;;21.90;64.30;;;;;;6099637;23;20432;-87
2022/05/24 10:41:25;;;;;;;2.63;1.63;;;21.40;65.10;;;;;;6003259;23;20383;-87
2022/05/24 10:44:41;;;;;;;;;;;;;;;;;;;;;
2022/05/24 10:52:06;;;;;;;0.83;0.83;;;21.90;65.30;;;;;;6056419;23;20488;-87
2022/05/24 10:55:19;;;;;;;2.07;0.87;;;22.50;60.70;;;;;;6083352;23;20401;-88
2022/05/24 11:08:53;;;;;;;1.50;0.77;;;23.10;58.60;;;;;;6134207;23;20470;-90
2022/05/24 11:15:15;;;;;;;2.50;0.80;;;23.00;57.50;;;;;;6103377;23;20424;-87
2022/05/24 11:26:07;;;;;;;;;;;;;;;;;;;;;
2022/05/24 11:29:35;;;;;;;;;;;;;;;;;;;;;
2022/05/24 11:33:06;;;;;;;1.20;1.10;;;22.40;59.20;;;;;;6019925;23;20395;-87
2022/05/24 11:44:17;;;;;;;;;;;;;;;;;;;;;
2022/05/24 11:48:13;;;;;;;;;;;;;;;;;;;;;
2022/05/24 11:52:21;;;;;;;3.87;1.50;;;22.00;59.50;;;;;;5856499;24;20441;-86
2022/05/24 11:55:55;;;;;;;4.93;1.20;;;21.70;61.00;;;;;;5930832;24;21243;-86
2022/05/24 12:11:48;;;;;;;1.03;0.93;;;22.40;54.80;;;;;;5897413;24;20419;-85
2022/05/24 12:19:03;;;;;;;1.63;1.00;;;22.20;54.40;;;;;;5954979;24;20441;-85
2022/05/24 12:22:41;;;;;;;2.10;0.77;;;21.30;55.40;;;;;;5964893;24;20464;-86
2022/05/24 12:26:19;;;;;;;1.67;1.30;;;21.00;56.90;;;;;;5852241;24;20400;-86
2022/05/24 12:29:59;;;;;;;;;;;;;;;;;;;;;
2022/05/24 12:33:33;;;;;;;0.93;0.90;;;21.00;63.20;;;;;;5855607;24;20420;-86
2022/05/24 12:37:23;;;;;;;1.20;1.10;;;21.90;59.20;;;;;;5890150;24;20814;-85
2022/05/24 12:41:08;;;;;;;1.87;0.80;;;22.00;59.00;;;;;;5883842;24;20414;-84
2022/05/24 12:44:23;;;;;;;;;;;;;;;;;;;;;
2022/05/24 12:47:33;;;;;;;2.97;0.80;;;22.80;56.10;;;;;;5870727;24;20927;-84
2022/05/24 12:51:03;;;;;;;1.63;1.17;;;23.50;54.30;;;;;;5834850;24;20501;-89
2022/05/24 13:01:57;;;;;;;3.40;0.90;;;22.40;54.60;;;;;;5846823;24;20531;-88
2022/05/24 13:05:33;;;;;;;;;;;;;;;;;;;;;
2022/05/24 13:08:33;;;;;;;1.50;0.73;;;22.80;54.00;;;;;;5817090;24;20449;-89
2022/05/24 13:12:25;;;;;;;1.43;0.70;;;22.90;54.10;;;;;;5798394;24;20432;-85
2022/05/24 13:15:02;;;;;;;0.80;0.80;;;22.80;53.90;;;;;;5772592;24;20401;-84
2022/05/24 13:17:54;;;;;;;0.70;0.70;;;22.80;54.30;;;;;;5795625;24;20506;-86
2022/05/24 13:20:46;;;;;;;0.80;0.80;;;22.70;53.90;;;;;;5796531;24;20835;-88
2022/05/24 13:24:07;;;;;;;1.13;0.80;;;22.80;54.10;;;;;;5818122;24;20447;-85
2022/05/24 13:27:14;;;;;;;1.67;0.90;;;22.90;51.70;;;;;;5918621;24;21146;-88
2022/05/24 13:36:29;;;;;;;1.63;0.70;;;23.10;51.00;;;;;;5913223;24;20406;-85
2022/05/24 13:39:02;;;;;;;1.10;0.93;;;22.90;51.00;;;;;;6001734;23;20476;-83
2022/05/24 13:41:39;;;;;;;2.57;0.80;;;22.70;52.30;;;;;;6101473;23;20412;-88
2022/05/24 13:45:01;;;;;;;2.17;1.53;;;22.60;52.70;;;;;;6103727;23;20460;-84
2022/05/24 13:47:58;;;;;;;3.60;3.30;;;22.50;55.60;;;;;;6090399;23;20517;-86
2022/05/24 13:50:31;;;;;;;1.33;1.23;;;22.00;58.00;;;;;;6059666;23;20401;-84
2022/05/24 13:53:01;;;;;;;3.47;2.07;;;21.70;59.30;;;;;;6088416;23;20900;-87
2022/05/24 13:55:40;;;;;;;2.47;1.57;;;21.70;60.00;;;;;;6070066;23;20507;-88
2022/05/24 13:58:18;;;;;;;2.50;1.07;;;21.90;60.40;;;;;;6065237;23;20483;-87
2022/05/24 14:00:51;;;;;;;1.10;1.00;;;22.20;60.40;;;;;;6090073;23;20909;-88
2022/05/24 14:03:21;;;;;;;1.63;1.10;;;22.40;59.70;;;;;;6067049;23;20448;-86
2022/05/24 14:06:02;;;;;;;4.10;1.77;;;22.60;59.50;;;;;;6091621;23;20412;-86
2022/05/24 14:08:31;;;;;;;3.10;1.50;;;22.60;59.00;;;;;;6066433;23;20427;-87
2022/05/24 14:10:59;;;;;;;3.77;1.83;;;22.70;58.60;;;;;;6070816;23;20443;-86
2022/05/24 14:13:26;;;;;;;2.40;1.60;;;22.90;58.90;;;;;;6069110;23;20665;-85
2022/05/24 14:15:53;;;;;;;3.30;1.47;;;22.80;59.40;;;;;;6090071;23;20423;-87
2022/05/24 14:18:21;;;;;;;2.50;1.30;;;22.80;59.30;;;;;;6068177;23;20484;-88
2022/05/24 14:20:49;;;;;;;1.83;1.50;;;22.60;58.90;;;;;;6070224;23;20445;-86
2022/05/24 14:23:19;;;;;;;5.13;1.90;;;22.40;59.70;;;;;;6097613;23;20424;-87
2022/05/24 14:25:49;;;;;;;3.23;1.77;;;22.40;59.80;;;;;;6105259;23;20432;-88
2022/05/24 14:28:17;;;;;;;1.60;1.40;;;22.40;59.50;;;;;;6113658;23;20444;-88
2022/05/24 14:30:47;;;;;;;2.03;1.43;;;22.50;59.00;;;;;;6090015;23;20400;-86
2022/05/24 14:33:17;;;;;;;2.67;1.23;;;22.60;58.80;;;;;;6105006;23;20484;-86
2022/05/24 14:39:17;;;;;;;2.50;2.00;;;22.80;58.80;;;;;;5955395;23;20444;-86
2022/05/24 14:41:46;;;;;;;1.33;1.10;;;22.50;57.50;;;;;;6094717;23;20381;-85
2022/05/24 14:44:44;;;;;;;2.70;1.33;;;22.20;57.80;;;;;;6097787;23;20405;-84
2022/05/24 14:47:17;;;;;;;3.20;0.90;;;21.90;58.60;;;;;;6094693;23;20507;-85
2022/05/24 14:49:46;;;;;;;4.93;1.30;;;21.80;58.80;;;;;;6093746;23;20455;-86
2022/05/24 14:52:15;;;;;;;1.50;1.10;;;21.80;58.70;;;;;;6094596;23;20408;-85
2022/05/24 14:54:57;;;;;;;1.93;1.10;;;21.90;58.50;;;;;;6068601;23;20413;-83
2022/05/24 14:57:24;;;;;;;1.40;1.30;;;21.90;58.50;;;;;;6098239;23;20743;-85
2022/05/24 14:59:51;;;;;;;2.43;1.23;;;21.90;58.60;;;;;;6097365;23;20441;-86
2022/05/24 15:02:25;;;;;;;2.03;1.50;;;22.10;58.20;;;;;;6068706;23;21354;-87
2022/05/24 15:04:54;;;;;;;2.87;1.30;;;22.00;57.70;;;;;;6097335;23;20443;-90
2022/05/24 15:15:45;;;;;;;1.53;1.27;;;21.00;62.70;;;;;;6097813;23;20416;-86
2022/05/24 15:18:15;;;;;;;2.07;1.33;;;20.90;63.90;;;;;;6098290;23;20500;-86
2022/05/24 15:20:45;;;;;;;1.83;1.43;;;20.70;65.40;;;;;;6076129;23;20453;-85
2022/05/24 15:23:17;;;;;;;1.70;1.60;;;20.70;66.40;;;;;;6074944;23;20413;-85
2022/05/24 15:25:53;;;;;;;1.63;1.53;;;20.70;66.10;;;;;;6068070;23;20799;-90
2022/05/24 15:28:24;;;;;;;2.40;1.30;;;20.80;66.50;;;;;;6070499;23;20396;-89
2022/05/24 15:30:50;;;;;;;2.57;1.23;;;20.80;66.60;;;;;;6091436;23;20419;-89
2022/05/24 15:33:18;;;;;;;2.17;1.40;;;20.50;65.40;;;;;;6066443;23;20516;-86
2022/05/24 15:35:45;;;;;;;1.70;1.30;;;20.50;66.10;;;;;;6092721;23;20419;-88
2022/05/24 15:38:16;;;;;;;1.03;0.90;;;20.60;65.90;;;;;;6091098;23;20528;-87
2022/05/24 15:40:42;;;;;;;1.50;1.40;;;20.70;65.10;;;;;;6091276;23;20811;-85
2022/05/24 15:43:17;;;;;;;1.60;1.20;;;20.60;64.10;;;;;;6071809;23;20492;-86
2022/05/24 15:45:48;;;;;;;1.00;0.90;;;20.50;62.90;;;;;;6092362;23;20425;-86
2022/05/24 15:48:22;;;;;;;1.20;0.90;;;20.40;62.10;;;;;;6068331;23;20447;-86
2022/05/24 15:50:49;;;;;;;1.40;1.30;;;20.40;62.10;;;;;;6066462;23;20412;-87
2022/05/24 15:53:16;;;;;;;1.10;1.00;;;20.40;61.10;;;;;;6091926;23;20425;-85
2022/05/24 15:55:43;;;;;;;2.90;1.37;;;20.40;61.30;;;;;;6093490;23;20417;-83
2022/05/24 15:58:10;;;;;;;1.27;1.13;;;20.30;61.60;;;;;;6069410;23;20451;-87
2022/05/24 16:00:36;;;;;;;3.37;1.10;;;20.30;62.00;;;;;;6068647;23;20439;-87
2022/05/24 16:03:04;;;;;;;2.00;1.67;;;20.40;62.70;;;;;;6070641;23;20464;-84
2022/05/24 16:11:09;;;;;;;2.20;1.57;;;20.50;64.10;;;;;;6097986;23;20412;-84
2022/05/24 16:13:37;;;;;;;2.70;1.40;;;20.60;64.90;;;;;;6069132;23;20444;-85
2022/05/24 16:16:06;;;;;;;2.10;1.70;;;20.60;64.70;;;;;;6092998;23;20672;-86
2022/05/24 16:18:36;;;;;;;2.00;1.27;;;20.60;65.10;;;;;;6093379;23;20450;-86
2022/05/24 16:21:12;;;;;;;1.33;1.10;;;20.50;65.80;;;;;;6074024;23;20428;-87
2022/05/24 16:23:39;;;;;;;1.30;1.20;;;20.50;66.30;;;;;;6096153;23;20864;-87
2022/05/24 16:26:06;;;;;;;1.40;1.20;;;20.60;66.50;;;;;;6073695;23;20415;-86
2022/05/24 16:28:33;;;;;;;1.07;0.90;;;20.50;66.60;;;;;;6073134;23;20430;-87
2022/05/24 16:31:00;;;;;;;3.87;1.20;;;20.40;67.20;;;;;;6099252;23;20416;-86
2022/05/24 16:33:31;;;;;;;3.57;1.47;;;20.30;67.40;;;;;;6081175;23;20437;-87
2022/05/24 16:36:19;;;;;;;1.87;1.17;;;20.20;67.60;;;;;;6101676;23;20424;-88
2022/05/24 16:38:49;;;;;;;1.20;1.03;;;20.10;67.90;;;;;;6116128;23;20456;-89
2022/05/24 16:41:27;;;;;;;1.80;1.20;;;20.10;68.00;;;;;;6094234;23;20404;-87
2022/05/24 16:44:10;;;;;;;1.63;1.20;;;20.00;68.40;;;;;;6116614;23;20448;-88
2022/05/24 16:46:39;;;;;;;1.93;1.20;;;20.00;68.30;;;;;;6091552;23;20522;-90
2022/05/24 16:49:12;;;;;;;1.23;1.17;;;19.90;68.20;;;;;;6117428;23;20553;-88
2022/05/24 16:52:07;;;;;;;3.03;1.67;;;19.90;68.40;;;;;;6108756;23;20404;-85
2022/05/24 17:00:13;;;;;;;4.73;2.10;;;19.70;69.00;;;;;;6093104;23;20440;-86
2022/05/24 17:03:06;;;;;;;3.17;1.60;;;19.60;69.60;;;;;;6092266;23;20397;-85
2022/05/24 17:05:34;;;;;;;4.27;2.20;;;19.60;70.00;;;;;;6066428;23;20452;-86
2022/05/24 17:08:03;;;;;;;2.30;1.87;;;19.70;70.00;;;;;;6091831;23;20511;-87
2022/05/24 17:10:31;;;;;;;3.57;1.40;;;19.80;70.10;;;;;;6068600;23;20428;-84
2022/05/24 17:12:58;;;;;;;4.43;2.20;;;20.00;70.00;;;;;;6071515;23;20419;-84
2022/05/24 17:15:26;;;;;;;3.63;1.67;;;20.10;69.50;;;;;;6094688;23;20425;-85
2022/05/24 17:17:52;;;;;;;1.50;1.40;;;20.20;69.40;;;;;;6094122;23;20432;-84
2022/05/24 17:20:23;;;;;;;2.00;1.43;;;20.30;69.30;;;;;;6094556;23;20500;-83
2022/05/24 17:22:53;;;;;;;2.10;1.30;;;20.30;67.70;;;;;;6078193;23;20389;-85
2022/05/24 17:25:22;;;;;;;2.40;1.30;;;20.20;67.30;;;;;;6098225;23;20508;-84
2022/05/24 17:27:49;;;;;;;3.23;1.60;;;20.40;65.90;;;;;;6068920;23;20439;-83
2022/05/24 17:30:17;;;;;;;1.73;1.30;;;20.40;65.50;;;;;;6095913;23;20437;-84
2022/05/24 17:32:51;;;;;;;1.53;1.40;;;20.20;66.70;;;;;;6072979;23;20389;-85
2022/05/24 17:35:18;;;;;;;2.67;1.30;;;20.10;66.50;;;;;;6096198;23;20893;-85
2022/05/24 17:37:45;;;;;;;2.20;1.17;;;20.10;64.10;;;;;;6070391;23;20781;-84
2022/05/24 17:40:13;;;;;;;2.97;1.40;;;20.10;63.60;;;;;;6092099;23;20448;-87
2022/05/24 17:43:00;;;;;;;2.23;1.30;;;20.10;64.10;;;;;;6095122;23;20424;-84
2022/05/24 17:45:28;;;;;;;1.97;1.20;;;20.10;62.70;;;;;;6095183;23;20416;-85
2022/05/24 17:48:01;;;;;;;2.30;1.03;;;20.10;62.00;;;;;;6073744;23;20447;-88
2022/05/24 17:50:29;;;;;;;1.10;1.00;;;20.00;59.90;;;;;;6092512;23;20430;-89
2022/05/24 17:52:56;;;;;;;1.60;1.30;;;19.90;60.60;;;;;;6087764;23;20429;-88
2022/05/24 17:55:23;;;;;;;5.23;1.33;;;19.90;60.10;;;;;;6088324;23;20436;-88
2022/05/24 17:57:49;;;;;;;1.97;1.00;;;19.80;60.00;;;;;;6095457;23;20436;-86
2022/05/24 18:00:17;;;;;;;2.33;1.67;;;19.70;60.00;;;;;;6067994;23;20455;-85
2022/05/24 18:02:44;;;;;;;2.73;1.60;;;19.70;60.00;;;;;;6068630;23;20512;-85
2022/05/24 18:05:11;;;;;;;2.13;1.10;;;19.70;59.80;;;;;;6072315;23;20416;-85
2022/05/24 18:07:38;;;;;;;2.60;1.27;;;19.60;59.60;;;;;;6068964;23;20432;-85
2022/05/24 18:10:06;;;;;;;2.90;1.20;;;19.50;59.90;;;;;;6093589;23;20424;-87
2022/05/24 18:12:34;;;;;;;1.43;1.33;;;19.50;60.70;;;;;;6094781;23;20397;-87
2022/05/24 18:15:01;;;;;;;1.60;1.40;;;19.40;60.60;;;;;;6094432;23;20417;-88
2022/05/24 18:17:27;;;;;;;1.80;0.90;;;19.40;61.10;;;;;;6090049;23;20436;-84
2022/05/24 18:19:54;;;;;;;1.47;1.00;;;19.40;61.00;;;;;;6069002;23;20443;-83
2022/05/24 18:22:27;;;;;;;1.40;1.10;;;19.40;61.10;;;;;;6068899;23;20487;-87
2022/05/24 18:24:58;;;;;;;2.70;1.70;;;19.50;61.70;;;;;;6094297;23;20415;-84
2022/05/24 18:33:19;;;;;;;3.40;1.20;;;19.50;62.10;;;;;;6094565;23;20792;-84
2022/05/24 18:35:57;;;;;;;4.63;1.63;;;19.50;62.10;;;;;;6094142;23;20417;-87
2022/05/24 18:38:26;;;;;;;2.40;1.30;;;19.50;61.90;;;;;;6069104;23;20436;-85
2022/05/24 18:40:55;;;;;;;1.10;1.00;;;19.30;61.90;;;;;;6067533;23;20496;-87
2022/05/24 18:43:22;;;;;;;0.97;0.90;;;19.40;62.40;;;;;;6067302;23;20409;-85
2022/05/24 18:45:49;;;;;;;1.90;1.27;;;19.40;62.70;;;;;;6068017;23;21047;-84
2022/05/24 18:48:17;;;;;;;4.93;2.60;;;19.40;63.20;;;;;;6091203;23;20433;-88
2022/05/24 18:50:44;;;;;;;2.80;1.70;;;19.40;63.00;;;;;;6095855;23;20451;-82
2022/05/24 18:53:11;;;;;;;2.40;2.20;;;19.30;63.20;;;;;;6091958;23;20409;-87
2022/05/24 18:55:39;;;;;;;2.43;1.10;;;19.30;63.80;;;;;;6068825;23;20420;-86
2022/05/24 18:58:07;;;;;;;1.37;1.13;;;19.20;63.50;;;;;;6073735;23;20433;-85
2022/05/24 19:00:35;;;;;;;1.47;1.37;;;19.20;64.00;;;;;;6102117;23;20446;-84
2022/05/24 19:03:02;;;;;;;2.03;1.27;;;19.10;64.10;;;;;;6073535;23;20412;-85
2022/05/24 19:05:28;;;;;;;1.73;1.30;;;19.00;64.90;;;;;;6095287;23;20431;-85
2022/05/24 19:07:55;;;;;;;1.20;1.10;;;18.90;65.60;;;;;;6093560;23;20473;-84
2022/05/24 19:10:23;;;;;;;1.40;1.30;;;18.90;65.80;;;;;;6091574;23;20415;-85
2022/05/24 19:12:49;;;;;;;2.13;1.33;;;18.90;66.20;;;;;;6086980;23;20409;-85
2022/05/24 19:15:17;;;;;;;4.10;1.67;;;18.90;66.10;;;;;;6088904;23;20413;-87
2022/05/24 19:17:44;;;;;;;2.23;1.30;;;18.90;66.10;;;;;;6062016;23;20498;-86
2022/05/24 19:20:12;;;;;;;1.97;1.33;;;19.00;66.20;;;;;;6063803;23;20444;-85
2022/05/24 19:22:41;;;;;;;1.50;1.40;;;19.00;66.70;;;;;;6091678;23;20440;-85
2022/05/24 19:25:08;;;;;;;1.50;1.40;;;18.90;66.50;;;;;;6090348;23;20428;-85
2022/05/24 19:27:35;;;;;;;2.43;1.60;;;18.90;66.70;;;;;;6090182;23;20428;-86
2022/05/24 19:30:03;;;;;;;3.43;1.40;;;19.00;67.30;;;;;;6064769;23;20416;-87
2022/05/24 19:32:34;;;;;;;2.30;2.10;;;19.40;65.80;;;;;;6066595;23;20420;-85
2022/05/24 19:35:01;;;;;;;0.93;0.90;;;19.40;65.60;;;;;;6090564;23;20424;-84
2022/05/24 19:37:28;;;;;;;1.27;1.10;;;19.40;65.40;;;;;;6094551;23;20512;-85
2022/05/24 19:42:45;;;;;;;2.03;1.70;;;19.00;74.70;;;;;;6095018;23;20435;-86
2022/05/24 19:45:12;;;;;;;1.47;1.37;;;18.60;79.10;;;;;;6067230;23;20417;-87
2022/05/24 19:47:41;;;;;;;2.60;1.23;;;18.30;81.70;;;;;;6067123;23;20470;-86
2022/05/24 19:50:12;;;;;;;2.67;1.30;;;18.20;82.90;;;;;;6068279;23;20491;-84